BAW24M OBBI-OEJN
Flight info
| Callsign | BAW24M |
|---|---|
| Flight time | 2h 3m |
| Altitude | 40000 |
| Route | BHR B457 NARMI N112 GETOT Q212 KSA G782 VEMEM |
| Aircraft | B772/H-SDE2E3FGHIJ5LORVWXY/LB1D1 |
Departure
| Time | 2026-05-04 11:43 |
|---|---|
| Airport | Bahrain International Airport (OBBI) |
Arrival
| Time | 2026-05-04 13:46 |
|---|---|
| Airport | King Abdulaziz International Airport (OEJN) |
| Time | Latitude | Longitude | Altitude | Speed | Heading |
|---|---|---|---|---|---|
| 2026-05-04 11:05 | 26.26507 | 50.63621 | 19 ft | 0 kts | 212° |
| 2026-05-04 11:24 | 26.26495 | 50.63613 | 19 ft | 0 kts | 212° |
| 2026-05-04 11:38 | 26.26488 | 50.63611 | 19 ft | 6 kts | 193° |
| 2026-05-04 11:38 | 26.26468 | 50.63633 | 15 ft | 4 kts | 106° |
| 2026-05-04 11:38 | 26.26482 | 50.63685 | 19 ft | 8 kts | 57° |
| 2026-05-04 11:38 | 26.26515 | 50.63711 | 19 ft | 7 kts | 31° |
| 2026-05-04 11:39 | 26.26525 | 50.63718 | 22 ft | 0 kts | 30° |
| 2026-05-04 11:40 | 26.26395 | 50.64201 | 17 ft | 26 kts | 122° |
| 2026-05-04 11:41 | 26.26300 | 50.64366 | 16 ft | 26 kts | 122° |
| 2026-05-04 11:41 | 26.26204 | 50.64533 | 17 ft | 26 kts | 122° |
| 2026-05-04 11:41 | 26.26107 | 50.64700 | 17 ft | 24 kts | 123° |
| 2026-05-04 11:41 | 26.26030 | 50.64845 | 19 ft | 18 kts | 109° |
| 2026-05-04 11:42 | 26.26033 | 50.64928 | 19 ft | 8 kts | 68° |
| 2026-05-04 11:42 | 26.26067 | 50.64974 | 20 ft | 8 kts | 41° |
| 2026-05-04 11:42 | 26.26141 | 50.64980 | 22 ft | 10 kts | 326° |
| 2026-05-04 11:42 | 26.26184 | 50.64922 | 20 ft | 10 kts | 304° |
| 2026-05-04 11:43 | 26.26269 | 50.64774 | 21 ft | 60 kts | 302° |
| 2026-05-04 11:43 | 26.26702 | 50.64025 | 59 ft | 162 kts | 302° |
| 2026-05-04 11:43 | 26.27298 | 50.62853 | 1033 ft | 182 kts | 301° |
| 2026-05-04 11:43 | 26.27964 | 50.61582 | 2364 ft | 199 kts | 304° |
| 2026-05-04 11:44 | 26.28681 | 50.60186 | 3281 ft | 212 kts | 303° |
| 2026-05-04 11:44 | 26.29412 | 50.58731 | 4312 ft | 217 kts | 303° |
| 2026-05-04 11:44 | 26.30165 | 50.57258 | 5382 ft | 220 kts | 303° |
| 2026-05-04 11:44 | 26.30843 | 50.55728 | 6319 ft | 226 kts | 287° |
| 2026-05-04 11:45 | 26.30878 | 50.53856 | 6598 ft | 260 kts | 268° |
| 2026-05-04 11:45 | 26.30699 | 50.51786 | 7265 ft | 272 kts | 269° |
| 2026-05-04 11:45 | 26.30575 | 50.49691 | 8214 ft | 273 kts | 270° |
| 2026-05-04 11:45 | 26.30480 | 50.47575 | 9191 ft | 274 kts | 270° |
| 2026-05-04 11:46 | 26.30404 | 50.45441 | 9823 ft | 277 kts | 270° |
| 2026-05-04 11:46 | 26.30341 | 50.43286 | 10015 ft | 281 kts | 270° |
| 2026-05-04 11:46 | 26.30286 | 50.41092 | 10091 ft | 288 kts | 270° |
| 2026-05-04 11:46 | 26.30235 | 50.38750 | 10317 ft | 317 kts | 270° |
| 2026-05-04 11:47 | 26.30180 | 50.36245 | 10971 ft | 328 kts | 270° |
| 2026-05-04 11:47 | 26.30132 | 50.33680 | 11849 ft | 333 kts | 271° |
| 2026-05-04 11:47 | 26.30295 | 50.31099 | 12832 ft | 335 kts | 278° |
| 2026-05-04 11:47 | 26.30674 | 50.28527 | 13773 ft | 339 kts | 279° |
| 2026-05-04 11:48 | 26.31051 | 50.25911 | 14610 ft | 344 kts | 278° |
| 2026-05-04 11:48 | 26.31298 | 50.24153 | 15165 ft | 348 kts | 278° |
| 2026-05-04 11:48 | 26.31797 | 50.20549 | 16292 ft | 355 kts | 277° |
| 2026-05-04 11:48 | 26.32046 | 50.18738 | 16846 ft | 359 kts | 277° |
| 2026-05-04 11:49 | 26.32294 | 50.15957 | 17682 ft | 363 kts | 271° |
| 2026-05-04 11:49 | 26.32269 | 50.13130 | 18412 ft | 368 kts | 267° |
| 2026-05-04 11:49 | 26.32198 | 50.10272 | 19128 ft | 371 kts | 267° |
| 2026-05-04 11:49 | 26.32127 | 50.07381 | 19884 ft | 374 kts | 268° |
| 2026-05-04 11:50 | 26.32058 | 50.04478 | 20609 ft | 377 kts | 268° |
| 2026-05-04 11:50 | 26.31991 | 50.01544 | 21302 ft | 381 kts | 268° |
| 2026-05-04 11:50 | 26.31925 | 49.98579 | 21987 ft | 385 kts | 268° |
| 2026-05-04 11:50 | 26.31860 | 49.95582 | 22668 ft | 388 kts | 268° |
| 2026-05-04 11:51 | 26.31794 | 49.92565 | 23319 ft | 392 kts | 268° |
| 2026-05-04 11:51 | 26.31728 | 49.89520 | 23911 ft | 394 kts | 268° |
| 2026-05-04 11:51 | 26.31661 | 49.86471 | 24602 ft | 393 kts | 268° |
| 2026-05-04 11:51 | 26.31594 | 49.83422 | 25270 ft | 394 kts | 267° |
| 2026-05-04 11:52 | 26.31526 | 49.80367 | 25884 ft | 396 kts | 267° |
| 2026-05-04 11:52 | 26.31457 | 49.77291 | 26478 ft | 398 kts | 267° |
| 2026-05-04 11:52 | 26.31387 | 49.74197 | 27072 ft | 401 kts | 267° |
| 2026-05-04 11:52 | 26.31316 | 49.71082 | 27670 ft | 403 kts | 267° |
| 2026-05-04 11:53 | 26.31244 | 49.67997 | 28254 ft | 405 kts | 267° |
| 2026-05-04 11:53 | 26.31171 | 49.64849 | 28842 ft | 408 kts | 267° |
| 2026-05-04 11:53 | 26.31096 | 49.61677 | 29423 ft | 410 kts | 267° |
| 2026-05-04 11:53 | 26.31020 | 49.58488 | 29957 ft | 413 kts | 267° |
| 2026-05-04 11:55 | 26.30435 | 49.35610 | 32951 ft | 431 kts | 267° |
| 2026-05-04 11:55 | 26.30340 | 49.32261 | 33316 ft | 433 kts | 267° |
| 2026-05-04 11:56 | 26.30245 | 49.28908 | 33719 ft | 434 kts | 266° |
| 2026-05-04 11:56 | 26.30150 | 49.25554 | 34193 ft | 431 kts | 266° |
| 2026-05-04 11:56 | 26.30056 | 49.22227 | 34661 ft | 429 kts | 266° |
| 2026-05-04 11:56 | 26.29960 | 49.18906 | 35093 ft | 428 kts | 266° |
| 2026-05-04 11:57 | 26.29864 | 49.15598 | 35523 ft | 427 kts | 266° |
| 2026-05-04 11:57 | 26.29768 | 49.12301 | 36005 ft | 424 kts | 266° |
| 2026-05-04 11:57 | 26.29667 | 49.09029 | 36480 ft | 422 kts | 265° |
| 2026-05-04 11:57 | 26.29476 | 49.05777 | 36902 ft | 420 kts | 263° |
| 2026-05-04 11:58 | 26.29220 | 49.02541 | 37290 ft | 419 kts | 263° |
| 2026-05-04 11:58 | 26.28945 | 48.99304 | 37686 ft | 418 kts | 263° |
| 2026-05-04 11:58 | 26.28674 | 48.96083 | 38088 ft | 417 kts | 263° |
| 2026-05-04 11:58 | 26.28413 | 48.92867 | 38469 ft | 416 kts | 263° |
| 2026-05-04 11:59 | 26.28159 | 48.89659 | 38779 ft | 416 kts | 263° |
| 2026-05-04 11:59 | 26.27910 | 48.86451 | 39075 ft | 415 kts | 263° |
| 2026-05-04 11:59 | 26.27663 | 48.83248 | 39357 ft | 415 kts | 263° |
| 2026-05-04 11:59 | 26.27417 | 48.80047 | 39648 ft | 414 kts | 263° |
| 2026-05-04 12:00 | 26.27170 | 48.76844 | 39727 ft | 418 kts | 263° |
| 2026-05-04 12:00 | 26.26666 | 48.70356 | 39810 ft | 420 kts | 263° |
| 2026-05-04 12:01 | 26.26167 | 48.63942 | 39806 ft | 412 kts | 263° |
| 2026-05-04 12:02 | 26.21819 | 48.42393 | 39841 ft | 411 kts | 245° |
| 2026-05-04 12:03 | 26.19371 | 48.36628 | 39836 ft | 412 kts | 245° |
| 2026-05-04 12:03 | 26.16933 | 48.30850 | 39841 ft | 413 kts | 245° |
| 2026-05-04 12:04 | 26.14507 | 48.25052 | 39833 ft | 413 kts | 245° |
| 2026-05-04 12:04 | 26.12002 | 48.19298 | 39843 ft | 413 kts | 241° |
| 2026-05-04 12:05 | 26.08815 | 48.13975 | 39844 ft | 415 kts | 233° |
| 2026-05-04 12:05 | 26.05133 | 48.09031 | 39849 ft | 415 kts | 232° |
| 2026-05-04 12:06 | 26.01448 | 48.04095 | 39857 ft | 415 kts | 232° |
| 2026-05-04 12:06 | 25.97770 | 47.99146 | 39854 ft | 415 kts | 232° |
| 2026-05-04 12:07 | 25.94100 | 47.94203 | 39858 ft | 414 kts | 232° |
| 2026-05-04 12:07 | 25.90435 | 47.89269 | 39860 ft | 414 kts | 232° |
| 2026-05-04 12:08 | 25.86761 | 47.84331 | 39865 ft | 414 kts | 232° |
| 2026-05-04 12:08 | 25.83107 | 47.79442 | 39872 ft | 414 kts | 232° |
| 2026-05-04 12:09 | 25.79415 | 47.74538 | 39862 ft | 414 kts | 232° |
| 2026-05-04 12:09 | 25.75720 | 47.69632 | 39873 ft | 414 kts | 232° |
| 2026-05-04 12:10 | 25.72022 | 47.64722 | 39879 ft | 415 kts | 232° |
| 2026-05-04 12:10 | 25.68326 | 47.59803 | 39882 ft | 415 kts | 232° |
| 2026-05-04 12:11 | 25.64644 | 47.54871 | 39891 ft | 416 kts | 232° |
| 2026-05-04 12:11 | 25.60951 | 47.49937 | 39888 ft | 416 kts | 232° |
| 2026-05-04 12:12 | 25.57242 | 47.45006 | 39894 ft | 416 kts | 232° |
| 2026-05-04 12:12 | 25.53530 | 47.40079 | 39889 ft | 417 kts | 232° |
| 2026-05-04 12:14 | 25.38675 | 47.20394 | 39907 ft | 416 kts | 232° |
| 2026-05-04 12:15 | 25.34960 | 47.15483 | 39909 ft | 416 kts | 232° |
| 2026-05-04 12:15 | 25.31243 | 47.10575 | 39919 ft | 416 kts | 232° |
| 2026-05-04 12:16 | 25.27520 | 47.05665 | 39924 ft | 417 kts | 232° |
| 2026-05-04 12:16 | 25.23795 | 47.00756 | 39922 ft | 417 kts | 232° |
| 2026-05-04 12:17 | 25.20064 | 46.95845 | 39932 ft | 417 kts | 232° |
| 2026-05-04 12:17 | 25.16328 | 46.90933 | 39929 ft | 418 kts | 232° |
| 2026-05-04 12:18 | 25.12590 | 46.86023 | 39919 ft | 418 kts | 232° |
| 2026-05-04 12:18 | 25.08850 | 46.81114 | 39916 ft | 418 kts | 231° |
| 2026-05-04 12:19 | 25.05128 | 46.76234 | 39912 ft | 418 kts | 231° |
| 2026-05-04 12:19 | 25.01362 | 46.71300 | 39913 ft | 418 kts | 231° |
| 2026-05-04 12:20 | 24.97705 | 46.66378 | 39918 ft | 417 kts | 235° |
| 2026-05-04 12:20 | 24.94562 | 46.61030 | 39918 ft | 416 kts | 238° |
| 2026-05-04 12:21 | 24.91454 | 46.55650 | 39907 ft | 416 kts | 238° |
| 2026-05-04 12:21 | 24.88337 | 46.50283 | 39917 ft | 416 kts | 238° |
| 2026-05-04 12:22 | 24.85205 | 46.44906 | 39930 ft | 417 kts | 238° |
| 2026-05-04 12:22 | 24.82068 | 46.39526 | 39936 ft | 418 kts | 238° |
| 2026-05-04 12:23 | 24.78924 | 46.34140 | 39946 ft | 419 kts | 238° |
| 2026-05-04 12:23 | 24.75772 | 46.28746 | 39939 ft | 419 kts | 238° |
| 2026-05-04 12:24 | 24.72621 | 46.23360 | 39943 ft | 419 kts | 238° |
| 2026-05-04 12:24 | 24.69464 | 46.17969 | 39938 ft | 419 kts | 238° |
| 2026-05-04 12:25 | 24.66310 | 46.12589 | 39930 ft | 418 kts | 238° |
| 2026-05-04 12:25 | 24.63156 | 46.07216 | 39929 ft | 418 kts | 238° |
| 2026-05-04 12:26 | 24.60000 | 46.01846 | 39930 ft | 418 kts | 238° |
| 2026-05-04 12:26 | 24.56846 | 45.96485 | 39924 ft | 418 kts | 238° |
| 2026-05-04 12:27 | 24.53691 | 45.91126 | 39925 ft | 418 kts | 238° |
| 2026-05-04 12:27 | 24.50534 | 45.85769 | 39921 ft | 418 kts | 238° |
| 2026-05-04 12:28 | 24.47376 | 45.80417 | 39917 ft | 418 kts | 238° |
| 2026-05-04 12:28 | 24.44408 | 45.75003 | 39916 ft | 417 kts | 244° |
| 2026-05-04 12:29 | 24.41891 | 45.69279 | 39913 ft | 417 kts | 244° |
| 2026-05-04 12:29 | 24.39358 | 45.63561 | 39915 ft | 416 kts | 244° |
| 2026-05-04 12:30 | 24.36817 | 45.57855 | 39912 ft | 416 kts | 244° |
| 2026-05-04 12:30 | 24.34267 | 45.52142 | 39912 ft | 417 kts | 244° |
| 2026-05-04 12:31 | 24.31718 | 45.46440 | 39909 ft | 417 kts | 243° |
| 2026-05-04 12:31 | 24.29162 | 45.40727 | 39911 ft | 417 kts | 243° |
| 2026-05-04 12:32 | 24.25327 | 45.32168 | 39918 ft | 417 kts | 243° |
| 2026-05-04 12:33 | 24.22767 | 45.26463 | 39918 ft | 417 kts | 243° |
| 2026-05-04 12:33 | 24.20207 | 45.20764 | 39923 ft | 417 kts | 243° |
| 2026-05-04 12:34 | 24.17645 | 45.15068 | 39921 ft | 417 kts | 243° |
| 2026-05-04 12:34 | 24.15082 | 45.09375 | 39924 ft | 417 kts | 243° |
| 2026-05-04 12:35 | 24.12520 | 45.03681 | 39930 ft | 417 kts | 243° |
| 2026-05-04 12:35 | 24.09959 | 44.97991 | 39949 ft | 417 kts | 243° |
| 2026-05-04 12:36 | 24.07391 | 44.92292 | 39936 ft | 418 kts | 243° |
| 2026-05-04 12:36 | 24.04821 | 44.86597 | 39935 ft | 417 kts | 243° |
| 2026-05-04 12:37 | 24.02250 | 44.80906 | 39940 ft | 417 kts | 243° |
| 2026-05-04 12:37 | 23.99695 | 44.75257 | 39944 ft | 417 kts | 243° |
| 2026-05-04 12:38 | 23.97126 | 44.69582 | 39931 ft | 417 kts | 243° |
| 2026-05-04 12:38 | 23.94552 | 44.63904 | 39940 ft | 417 kts | 243° |
| 2026-05-04 12:39 | 23.92640 | 44.59028 | 39950 ft | 417 kts | 250° |
| 2026-05-04 12:39 | 23.91141 | 44.52941 | 39941 ft | 418 kts | 255° |
| 2026-05-04 12:40 | 23.89844 | 44.46747 | 39930 ft | 418 kts | 255° |
| 2026-05-04 12:40 | 23.88533 | 44.40553 | 39934 ft | 418 kts | 255° |
| 2026-05-04 12:41 | 23.87211 | 44.34361 | 39935 ft | 419 kts | 255° |
| 2026-05-04 12:41 | 23.85883 | 44.28171 | 39925 ft | 419 kts | 255° |
| 2026-05-04 12:42 | 23.84553 | 44.21980 | 39936 ft | 419 kts | 255° |
| 2026-05-04 12:42 | 23.83220 | 44.15791 | 39919 ft | 418 kts | 255° |
| 2026-05-04 12:43 | 23.81885 | 44.09605 | 39916 ft | 418 kts | 255° |
| 2026-05-04 12:43 | 23.80551 | 44.03433 | 39925 ft | 417 kts | 255° |
| 2026-05-04 12:44 | 23.79218 | 43.97276 | 39913 ft | 417 kts | 255° |
| 2026-05-04 12:44 | 23.77883 | 43.91126 | 39923 ft | 416 kts | 255° |
| 2026-05-04 12:45 | 23.76542 | 43.84978 | 39924 ft | 416 kts | 255° |
| 2026-05-04 12:45 | 23.75194 | 43.78842 | 39934 ft | 416 kts | 255° |
| 2026-05-04 12:46 | 23.73842 | 43.72698 | 39943 ft | 416 kts | 255° |
| 2026-05-04 12:46 | 23.72489 | 43.66559 | 39946 ft | 416 kts | 255° |
| 2026-05-04 12:47 | 23.71134 | 43.60418 | 39932 ft | 416 kts | 255° |
| 2026-05-04 12:47 | 23.69778 | 43.54286 | 39953 ft | 416 kts | 255° |
| 2026-05-04 12:48 | 23.68419 | 43.48151 | 39956 ft | 416 kts | 255° |
| 2026-05-04 12:48 | 23.67056 | 43.42008 | 39975 ft | 417 kts | 255° |
| 2026-05-04 12:49 | 23.65688 | 43.35859 | 39964 ft | 417 kts | 255° |
| 2026-05-04 12:49 | 23.64318 | 43.29709 | 39966 ft | 417 kts | 255° |
| 2026-05-04 12:50 | 23.62946 | 43.23566 | 39985 ft | 417 kts | 254° |
| 2026-05-04 12:50 | 23.61572 | 43.17424 | 39973 ft | 417 kts | 254° |
| 2026-05-04 12:51 | 23.60197 | 43.11291 | 39975 ft | 416 kts | 254° |
| 2026-05-04 12:51 | 23.58831 | 43.05208 | 39981 ft | 415 kts | 254° |
| 2026-05-04 12:52 | 23.57456 | 42.99096 | 39990 ft | 415 kts | 254° |
| 2026-05-04 12:52 | 23.56077 | 42.92982 | 39987 ft | 415 kts | 254° |
| 2026-05-04 12:53 | 23.54700 | 42.86883 | 39992 ft | 415 kts | 254° |
| 2026-05-04 12:53 | 23.53319 | 42.80780 | 39990 ft | 415 kts | 254° |
| 2026-05-04 12:54 | 23.51935 | 42.74679 | 39987 ft | 415 kts | 254° |
| 2026-05-04 12:54 | 23.50553 | 42.68585 | 39987 ft | 414 kts | 254° |
| 2026-05-04 12:55 | 23.49169 | 42.62488 | 39992 ft | 414 kts | 254° |
| 2026-05-04 12:55 | 23.47784 | 42.56397 | 39992 ft | 414 kts | 254° |
| 2026-05-04 12:56 | 23.46396 | 42.50303 | 39988 ft | 414 kts | 254° |
| 2026-05-04 12:56 | 23.45007 | 42.44220 | 39988 ft | 414 kts | 254° |
| 2026-05-04 12:57 | 23.43617 | 42.38139 | 39995 ft | 414 kts | 254° |
| 2026-05-04 12:57 | 23.42225 | 42.32064 | 39984 ft | 413 kts | 254° |
| 2026-05-04 12:58 | 23.40831 | 42.25993 | 39992 ft | 413 kts | 254° |
| 2026-05-04 12:58 | 23.39437 | 42.19932 | 39988 ft | 413 kts | 254° |
| 2026-05-04 12:59 | 23.38039 | 42.13866 | 39996 ft | 414 kts | 253° |
| 2026-05-04 12:59 | 23.36640 | 42.07804 | 39991 ft | 414 kts | 253° |
| 2026-05-04 13:00 | 23.35235 | 42.01729 | 39994 ft | 414 kts | 253° |
| 2026-05-04 13:00 | 23.33830 | 41.95666 | 40005 ft | 413 kts | 253° |
| 2026-05-04 13:01 | 23.32432 | 41.89641 | 39992 ft | 413 kts | 253° |
| 2026-05-04 13:01 | 23.31024 | 41.83585 | 39993 ft | 413 kts | 253° |
| 2026-05-04 13:02 | 23.29613 | 41.77528 | 40000 ft | 413 kts | 253° |
| 2026-05-04 13:02 | 23.27688 | 41.71673 | 40002 ft | 411 kts | 244° |
| 2026-05-04 13:03 | 23.25000 | 41.66210 | 40003 ft | 410 kts | 238° |
| 2026-05-04 13:03 | 23.21906 | 41.60997 | 40000 ft | 410 kts | 237° |
| 2026-05-04 13:04 | 23.18796 | 41.55793 | 40002 ft | 410 kts | 237° |
| 2026-05-04 13:04 | 23.15697 | 41.50576 | 40005 ft | 411 kts | 237° |
| 2026-05-04 13:05 | 23.12599 | 41.45349 | 40003 ft | 412 kts | 237° |
| 2026-05-04 13:05 | 23.09493 | 41.40109 | 40009 ft | 413 kts | 237° |
| 2026-05-04 13:06 | 23.06382 | 41.34864 | 40002 ft | 413 kts | 237° |
| 2026-05-04 13:06 | 23.03267 | 41.29619 | 39996 ft | 414 kts | 237° |
| 2026-05-04 13:07 | 23.00144 | 41.24366 | 40001 ft | 414 kts | 237° |
| 2026-05-04 13:07 | 22.97012 | 41.19104 | 40008 ft | 415 kts | 237° |
| 2026-05-04 13:08 | 22.93878 | 41.13842 | 40006 ft | 415 kts | 237° |
| 2026-05-04 13:08 | 22.90763 | 41.08617 | 40010 ft | 415 kts | 237° |
| 2026-05-04 13:09 | 22.87629 | 41.03364 | 39988 ft | 415 kts | 237° |
| 2026-05-04 13:09 | 22.84492 | 40.98118 | 39994 ft | 414 kts | 237° |
| 2026-05-04 13:10 | 22.81354 | 40.92887 | 40004 ft | 414 kts | 237° |
| 2026-05-04 13:10 | 22.78213 | 40.87657 | 40007 ft | 414 kts | 237° |
| 2026-05-04 13:11 | 22.75075 | 40.82432 | 40002 ft | 414 kts | 237° |
| 2026-05-04 13:11 | 22.71932 | 40.77205 | 39677 ft | 417 kts | 237° |
| 2026-05-04 13:11 | 22.70349 | 40.74575 | 39214 ft | 414 kts | 238° |
| 2026-05-04 13:12 | 22.68787 | 40.71979 | 38731 ft | 410 kts | 238° |
| 2026-05-04 13:12 | 22.67239 | 40.69410 | 38192 ft | 406 kts | 238° |
| 2026-05-04 13:12 | 22.65706 | 40.66865 | 37675 ft | 401 kts | 238° |
| 2026-05-04 13:12 | 22.64186 | 40.64345 | 37212 ft | 397 kts | 238° |
| 2026-05-04 13:13 | 22.62688 | 40.61861 | 36766 ft | 393 kts | 238° |
| 2026-05-04 13:13 | 22.61202 | 40.59399 | 36314 ft | 389 kts | 238° |
| 2026-05-04 13:13 | 22.59731 | 40.56963 | 35861 ft | 385 kts | 238° |
| 2026-05-04 13:13 | 22.58271 | 40.54545 | 35422 ft | 382 kts | 238° |
| 2026-05-04 13:14 | 22.56821 | 40.52146 | 34964 ft | 379 kts | 238° |
| 2026-05-04 13:14 | 22.55382 | 40.49765 | 34502 ft | 377 kts | 238° |
| 2026-05-04 13:14 | 22.53949 | 40.47396 | 34067 ft | 375 kts | 238° |
| 2026-05-04 13:14 | 22.52522 | 40.45037 | 33554 ft | 373 kts | 238° |
| 2026-05-04 13:15 | 22.51108 | 40.42700 | 33100 ft | 370 kts | 238° |
| 2026-05-04 13:15 | 22.49702 | 40.40377 | 32648 ft | 367 kts | 238° |
| 2026-05-04 13:15 | 22.48309 | 40.38079 | 32216 ft | 364 kts | 238° |
| 2026-05-04 13:15 | 22.46929 | 40.35801 | 31792 ft | 361 kts | 238° |
| 2026-05-04 13:16 | 22.45556 | 40.33538 | 31351 ft | 358 kts | 238° |
| 2026-05-04 13:16 | 22.44194 | 40.31291 | 30816 ft | 361 kts | 238° |
| 2026-05-04 13:16 | 22.42816 | 40.29018 | 30258 ft | 371 kts | 238° |
| 2026-05-04 13:16 | 22.41377 | 40.26645 | 29566 ft | 383 kts | 238° |
| 2026-05-04 13:17 | 22.39903 | 40.24218 | 29109 ft | 388 kts | 238° |
| 2026-05-04 13:17 | 22.38412 | 40.21765 | 28602 ft | 393 kts | 238° |
| 2026-05-04 13:17 | 22.36902 | 40.19282 | 28163 ft | 396 kts | 238° |
| 2026-05-04 13:17 | 22.35388 | 40.16793 | 27897 ft | 395 kts | 238° |
| 2026-05-04 13:18 | 22.33882 | 40.14320 | 27488 ft | 394 kts | 238° |
| 2026-05-04 13:18 | 22.32377 | 40.11848 | 26853 ft | 392 kts | 238° |
| 2026-05-04 13:18 | 22.30883 | 40.09395 | 26265 ft | 390 kts | 238° |
| 2026-05-04 13:18 | 22.29395 | 40.06952 | 25681 ft | 388 kts | 238° |
| 2026-05-04 13:19 | 22.27919 | 40.04530 | 25114 ft | 386 kts | 238° |
| 2026-05-04 13:19 | 22.26919 | 40.02892 | 24704 ft | 386 kts | 238° |
| 2026-05-04 13:19 | 22.24968 | 39.99693 | 23958 ft | 385 kts | 238° |
| 2026-05-04 13:19 | 22.23496 | 39.97280 | 23375 ft | 384 kts | 238° |
| 2026-05-04 13:20 | 22.22028 | 39.94874 | 22766 ft | 384 kts | 237° |
| 2026-05-04 13:20 | 22.20582 | 39.92507 | 22589 ft | 371 kts | 238° |
| 2026-05-04 13:20 | 22.19184 | 39.90218 | 22431 ft | 360 kts | 238° |
| 2026-05-04 13:20 | 22.17823 | 39.87992 | 22149 ft | 352 kts | 238° |
| 2026-05-04 13:21 | 22.16478 | 39.85791 | 21650 ft | 352 kts | 238° |
| 2026-05-04 13:21 | 22.15127 | 39.83582 | 21090 ft | 353 kts | 238° |
| 2026-05-04 13:21 | 22.13777 | 39.81378 | 20588 ft | 353 kts | 238° |
| 2026-05-04 13:21 | 22.12425 | 39.79171 | 20076 ft | 352 kts | 238° |
| 2026-05-04 13:22 | 22.11063 | 39.76947 | 19499 ft | 355 kts | 238° |
| 2026-05-04 13:22 | 22.09714 | 39.74745 | 19157 ft | 349 kts | 238° |
| 2026-05-04 13:22 | 22.08381 | 39.72571 | 18762 ft | 346 kts | 238° |
| 2026-05-04 13:22 | 22.07053 | 39.70406 | 18251 ft | 347 kts | 238° |
| 2026-05-04 13:23 | 22.05721 | 39.68233 | 17638 ft | 348 kts | 238° |
| 2026-05-04 13:23 | 22.04392 | 39.66065 | 17151 ft | 346 kts | 237° |
| 2026-05-04 13:23 | 22.03062 | 39.63897 | 16673 ft | 344 kts | 237° |
| 2026-05-04 13:23 | 22.01749 | 39.61760 | 16239 ft | 341 kts | 237° |
| 2026-05-04 13:24 | 22.00448 | 39.59642 | 15793 ft | 338 kts | 237° |
| 2026-05-04 13:24 | 21.99149 | 39.57527 | 15251 ft | 339 kts | 236° |
| 2026-05-04 13:24 | 21.97867 | 39.55441 | 15062 ft | 329 kts | 236° |
| 2026-05-04 13:25 | 21.95418 | 39.51459 | 14883 ft | 307 kts | 235° |
| 2026-05-04 13:25 | 21.94266 | 39.49577 | 14860 ft | 298 kts | 237° |
| 2026-05-04 13:25 | 21.93248 | 39.47600 | 14390 ft | 311 kts | 242° |
| 2026-05-04 13:25 | 21.92310 | 39.45454 | 13960 ft | 314 kts | 244° |
| 2026-05-04 13:26 | 21.91416 | 39.43348 | 13614 ft | 312 kts | 242° |
| 2026-05-04 13:26 | 21.90812 | 39.41933 | 13320 ft | 304 kts | 243° |
| 2026-05-04 13:26 | 21.89666 | 39.39281 | 12718 ft | 286 kts | 242° |
| 2026-05-04 13:26 | 21.88825 | 39.37370 | 12294 ft | 284 kts | 242° |
| 2026-05-04 13:27 | 21.87948 | 39.35393 | 11893 ft | 298 kts | 243° |
| 2026-05-04 13:27 | 21.87335 | 39.34019 | 11584 ft | 302 kts | 243° |
| 2026-05-04 13:27 | 21.86426 | 39.31976 | 11135 ft | 303 kts | 243° |
| 2026-05-04 13:27 | 21.85517 | 39.29934 | 10728 ft | 301 kts | 244° |
| 2026-05-04 13:28 | 21.84573 | 39.27837 | 10495 ft | 326 kts | 243° |
| 2026-05-04 13:28 | 21.83516 | 39.25720 | 10038 ft | 320 kts | 233° |
| 2026-05-04 13:28 | 21.81875 | 39.24224 | 9408 ft | 300 kts | 205° |
| 2026-05-04 13:28 | 21.79950 | 39.23611 | 9179 ft | 275 kts | 189° |
| 2026-05-04 13:29 | 21.78012 | 39.23474 | 8892 ft | 300 kts | 178° |
| 2026-05-04 13:29 | 21.75889 | 39.23902 | 8877 ft | 302 kts | 162° |
| 2026-05-04 13:29 | 21.73954 | 39.24673 | 8388 ft | 296 kts | 159° |
| 2026-05-04 13:29 | 21.71990 | 39.25514 | 8110 ft | 308 kts | 158° |
| 2026-05-04 13:30 | 21.70056 | 39.26339 | 8148 ft | 298 kts | 159° |
| 2026-05-04 13:30 | 21.68152 | 39.27125 | 8078 ft | 288 kts | 159° |
| 2026-05-04 13:30 | 21.66315 | 39.27862 | 8010 ft | 277 kts | 160° |
| 2026-05-04 13:30 | 21.64590 | 39.28547 | 7781 ft | 255 kts | 159° |
| 2026-05-04 13:31 | 21.62933 | 39.29207 | 7445 ft | 254 kts | 160° |
| 2026-05-04 13:31 | 21.61266 | 39.29863 | 7401 ft | 257 kts | 160° |
| 2026-05-04 13:31 | 21.59612 | 39.30510 | 7235 ft | 246 kts | 160° |
| 2026-05-04 13:31 | 21.58002 | 39.31138 | 6629 ft | 247 kts | 160° |
| 2026-05-04 13:32 | 21.56382 | 39.31771 | 6102 ft | 243 kts | 159° |
| 2026-05-04 13:32 | 21.54780 | 39.32399 | 6200 ft | 252 kts | 159° |
| 2026-05-04 13:32 | 21.53127 | 39.33043 | 6220 ft | 253 kts | 159° |
| 2026-05-04 13:32 | 21.51471 | 39.33691 | 6161 ft | 254 kts | 159° |
| 2026-05-04 13:33 | 21.49808 | 39.34344 | 5880 ft | 256 kts | 159° |
| 2026-05-04 13:33 | 21.48118 | 39.35007 | 5434 ft | 263 kts | 158° |
| 2026-05-04 13:33 | 21.46373 | 39.35691 | 5030 ft | 269 kts | 159° |
| 2026-05-04 13:33 | 21.44621 | 39.36375 | 4781 ft | 267 kts | 159° |
| 2026-05-04 13:34 | 21.42890 | 39.37052 | 4574 ft | 263 kts | 159° |
| 2026-05-04 13:34 | 21.41183 | 39.37723 | 4293 ft | 263 kts | 158° |
| 2026-05-04 13:34 | 21.39465 | 39.38401 | 3954 ft | 265 kts | 159° |
| 2026-05-04 13:34 | 21.37755 | 39.39051 | 3835 ft | 254 kts | 165° |
| 2026-05-04 13:35 | 21.36020 | 39.39132 | 3411 ft | 254 kts | 200° |
| 2026-05-04 13:35 | 21.33552 | 39.36831 | 2897 ft | 230 kts | 248° |
| 2026-05-04 13:35 | 21.32952 | 39.35293 | 2802 ft | 217 kts | 254° |
| 2026-05-04 13:36 | 21.32530 | 39.33812 | 2706 ft | 197 kts | 272° |
| 2026-05-04 13:36 | 21.32835 | 39.32490 | 2474 ft | 182 kts | 309° |
| 2026-05-04 13:36 | 21.33804 | 39.31708 | 2231 ft | 172 kts | 332° |
| 2026-05-04 13:36 | 21.34828 | 39.31094 | 2185 ft | 171 kts | 331° |
| 2026-05-04 13:37 | 21.35884 | 39.30472 | 2144 ft | 174 kts | 332° |
| 2026-05-04 13:37 | 21.36965 | 39.29911 | 2131 ft | 172 kts | 334° |
| 2026-05-04 13:37 | 21.38043 | 39.29416 | 2118 ft | 171 kts | 336° |
| 2026-05-04 13:37 | 21.39120 | 39.28957 | 2119 ft | 161 kts | 338° |
| 2026-05-04 13:38 | 21.40161 | 39.28527 | 2121 ft | 156 kts | 338° |
| 2026-05-04 13:38 | 21.41135 | 39.28135 | 2122 ft | 152 kts | 338° |
| 2026-05-04 13:38 | 21.42145 | 39.27733 | 2115 ft | 151 kts | 338° |
| 2026-05-04 13:38 | 21.43069 | 39.27368 | 2096 ft | 131 kts | 337° |
| 2026-05-04 13:39 | 21.43903 | 39.27040 | 2102 ft | 124 kts | 337° |
| 2026-05-04 13:39 | 21.44722 | 39.26715 | 2107 ft | 126 kts | 338° |
| 2026-05-04 13:39 | 21.45543 | 39.26390 | 2103 ft | 125 kts | 339° |
| 2026-05-04 13:39 | 21.46351 | 39.26071 | 2113 ft | 123 kts | 340° |
| 2026-05-04 13:40 | 21.47154 | 39.25753 | 2123 ft | 125 kts | 339° |
| 2026-05-04 13:40 | 21.47985 | 39.25426 | 2116 ft | 129 kts | 339° |
| 2026-05-04 13:40 | 21.48834 | 39.25091 | 2114 ft | 132 kts | 338° |
| 2026-05-04 13:40 | 21.49686 | 39.24754 | 2123 ft | 131 kts | 338° |
| 2026-05-04 13:41 | 21.50546 | 39.24414 | 2108 ft | 132 kts | 338° |
| 2026-05-04 13:41 | 21.51407 | 39.24075 | 2100 ft | 133 kts | 338° |
| 2026-05-04 13:41 | 21.52271 | 39.23734 | 2116 ft | 132 kts | 338° |
| 2026-05-04 13:42 | 21.54037 | 39.23035 | 2114 ft | 135 kts | 338° |
| 2026-05-04 13:42 | 21.54896 | 39.22698 | 2097 ft | 129 kts | 337° |
| 2026-05-04 13:42 | 21.55750 | 39.22358 | 2103 ft | 136 kts | 337° |
| 2026-05-04 13:42 | 21.56652 | 39.22002 | 2037 ft | 138 kts | 337° |
| 2026-05-04 13:43 | 21.57505 | 39.21667 | 1866 ft | 124 kts | 336° |
| 2026-05-04 13:43 | 21.58320 | 39.21343 | 1714 ft | 124 kts | 338° |
| 2026-05-04 13:43 | 21.59110 | 39.21030 | 1568 ft | 118 kts | 338° |
| 2026-05-04 13:43 | 21.59879 | 39.20727 | 1407 ft | 117 kts | 339° |
| 2026-05-04 13:44 | 21.60650 | 39.20421 | 1267 ft | 120 kts | 339° |
| 2026-05-04 13:44 | 21.61421 | 39.20118 | 1104 ft | 118 kts | 338° |
| 2026-05-04 13:44 | 21.62170 | 39.19820 | 983 ft | 115 kts | 337° |
| 2026-05-04 13:44 | 21.62937 | 39.19516 | 793 ft | 126 kts | 338° |
| 2026-05-04 13:45 | 21.63815 | 39.19160 | 671 ft | 134 kts | 339° |
| 2026-05-04 13:45 | 21.64668 | 39.18831 | 442 ft | 128 kts | 338° |
| 2026-05-04 13:45 | 21.65509 | 39.18502 | 320 ft | 129 kts | 339° |
| 2026-05-04 13:45 | 21.66343 | 39.18169 | 199 ft | 128 kts | 336° |
| 2026-05-04 13:46 | 21.67152 | 39.17855 | 62 ft | 120 kts | 333° |
| 2026-05-04 13:46 | 21.67868 | 39.17565 | 39 ft | 95 kts | 335° |
| 2026-05-04 13:46 | 21.68374 | 39.17370 | 31 ft | 55 kts | 339° |
| 2026-05-04 13:46 | 21.68641 | 39.17264 | 30 ft | 30 kts | 340° |
| 2026-05-04 13:47 | 21.68812 | 39.17159 | 30 ft | 29 kts | 319° |
| 2026-05-04 13:47 | 21.68879 | 39.17083 | 31 ft | 12 kts | 310° |
| 2026-05-04 13:47 | 21.68934 | 39.17014 | 30 ft | 12 kts | 310° |
| 2026-05-04 13:47 | 21.69009 | 39.16919 | 30 ft | 19 kts | 312° |
| 2026-05-04 13:48 | 21.69120 | 39.16839 | 29 ft | 19 kts | 333° |
| 2026-05-04 13:48 | 21.69231 | 39.16781 | 29 ft | 16 kts | 312° |
| 2026-05-04 13:48 | 21.69198 | 39.16716 | 29 ft | 11 kts | 178° |
| 2026-05-04 13:48 | 21.69120 | 39.16740 | 29 ft | 12 kts | 162° |
| 2026-05-04 13:49 | 21.69039 | 39.16772 | 30 ft | 16 kts | 160° |
| 2026-05-04 13:49 | 21.68908 | 39.16823 | 30 ft | 21 kts | 160° |
| 2026-05-04 13:49 | 21.68773 | 39.16875 | 31 ft | 21 kts | 159° |
| 2026-05-04 13:49 | 21.68638 | 39.16929 | 31 ft | 21 kts | 159° |
| 2026-05-04 13:50 | 21.68503 | 39.16984 | 32 ft | 21 kts | 159° |
| 2026-05-04 13:50 | 21.68368 | 39.17036 | 33 ft | 21 kts | 161° |
| 2026-05-04 13:50 | 21.68238 | 39.17089 | 33 ft | 20 kts | 159° |
| 2026-05-04 13:50 | 21.68121 | 39.17134 | 34 ft | 10 kts | 161° |
| 2026-05-04 13:51 | 21.68092 | 39.17144 | 34 ft | 7 kts | 161° |
| 2026-05-04 13:51 | 21.68003 | 39.17164 | 34 ft | 13 kts | 194° |
| 2026-05-04 13:51 | 21.67948 | 39.17089 | 34 ft | 13 kts | 244° |
| 2026-05-04 13:51 | 21.67913 | 39.16998 | 34 ft | 13 kts | 251° |
| 2026-05-04 13:52 | 21.67849 | 39.16813 | 34 ft | 13 kts | 247° |
| 2026-05-04 13:52 | 21.67815 | 39.16714 | 34 ft | 20 kts | 250° |
| 2026-05-04 13:52 | 21.67715 | 39.16636 | 35 ft | 18 kts | 171° |
| 2026-05-04 13:53 | 21.67597 | 39.16674 | 35 ft | 18 kts | 161° |
| 2026-05-04 13:53 | 21.67482 | 39.16722 | 36 ft | 18 kts | 159° |
| 2026-05-04 13:53 | 21.67367 | 39.16765 | 36 ft | 17 kts | 166° |
| 2026-05-04 13:54 | 21.67225 | 39.16871 | 37 ft | 12 kts | 84° |
| 2026-05-04 13:54 | 21.67254 | 39.16954 | 37 ft | 12 kts | 61° |
| 2026-05-04 13:54 | 21.67214 | 39.17042 | 37 ft | 1 kts | 130° |
| 2026-05-04 13:55 | 21.67205 | 39.17050 | 37 ft | 2 kts | 138° |
| 2026-05-04 13:55 | 21.67189 | 39.17063 | 37 ft | 0 kts | 144° |